NSK6417 USSS-ULLI
Flight info
| Callsign | NSK6417 |
|---|---|
| Flight time | 2h 38m |
| Altitude | 34000 |
| Route | UMTEK6H UMTEK M864 LUNAG N170 PENUS T762 GEBSI M60 INSOK P979 BEPOL BEPOL1V |
| Aircraft | A321/M-SDE3FGHIRWY/LB1 |
Departure
| Time | 2026-05-04 22:39 |
|---|---|
| Airport | Koltsovo Airport (USSS) |
Arrival
| Time | 2026-05-05 01:17 |
|---|---|
| Airport | Pulkovo Airport (ULLI) |
| Time | Latitude | Longitude | Altitude | Speed | Heading |
|---|---|---|---|---|---|
| 2026-05-04 21:45 | 56.74921 | 60.79621 | 775 ft | 0 kts | 0° |
| 2026-05-04 22:27 | 56.74908 | 60.79621 | 774 ft | 4 kts | 0° |
| 2026-05-04 22:28 | 56.74886 | 60.79622 | 774 ft | 4 kts | 5° |
| 2026-05-04 22:28 | 56.74863 | 60.79607 | 774 ft | 4 kts | 57° |
| 2026-05-04 22:28 | 56.74857 | 60.79564 | 774 ft | 3 kts | 90° |
| 2026-05-04 22:28 | 56.74857 | 60.79517 | 774 ft | 4 kts | 91° |
| 2026-05-04 22:29 | 56.74857 | 60.79503 | 774 ft | 0 kts | 91° |
| 2026-05-04 22:31 | 56.74857 | 60.79504 | 774 ft | 2 kts | 91° |
| 2026-05-04 22:31 | 56.74855 | 60.79641 | 774 ft | 19 kts | 93° |
| 2026-05-04 22:32 | 56.74852 | 60.79955 | 774 ft | 27 kts | 90° |
| 2026-05-04 22:32 | 56.74852 | 60.80291 | 775 ft | 26 kts | 90° |
| 2026-05-04 22:32 | 56.74852 | 60.80591 | 775 ft | 25 kts | 90° |
| 2026-05-04 22:32 | 56.74854 | 60.80883 | 775 ft | 17 kts | 84° |
| 2026-05-04 22:33 | 56.74867 | 60.81041 | 775 ft | 12 kts | 89° |
| 2026-05-04 22:33 | 56.74865 | 60.81186 | 775 ft | 11 kts | 92° |
| 2026-05-04 22:33 | 56.74863 | 60.81327 | 775 ft | 11 kts | 91° |
| 2026-05-04 22:33 | 56.74862 | 60.81460 | 775 ft | 10 kts | 90° |
| 2026-05-04 22:34 | 56.74862 | 60.81586 | 775 ft | 10 kts | 90° |
| 2026-05-04 22:34 | 56.74862 | 60.81706 | 775 ft | 9 kts | 90° |
| 2026-05-04 22:34 | 56.74861 | 60.81818 | 775 ft | 8 kts | 94° |
| 2026-05-04 22:34 | 56.74842 | 60.81915 | 775 ft | 8 kts | 116° |
| 2026-05-04 22:35 | 56.74818 | 60.82000 | 775 ft | 7 kts | 117° |
| 2026-05-04 22:35 | 56.74795 | 60.82079 | 775 ft | 7 kts | 117° |
| 2026-05-04 22:35 | 56.74773 | 60.82155 | 775 ft | 9 kts | 125° |
| 2026-05-04 22:35 | 56.74704 | 60.82201 | 775 ft | 11 kts | 180° |
| 2026-05-04 22:36 | 56.74632 | 60.82199 | 775 ft | 10 kts | 180° |
| 2026-05-04 22:36 | 56.74566 | 60.82198 | 775 ft | 9 kts | 180° |
| 2026-05-04 22:36 | 56.74505 | 60.82198 | 775 ft | 8 kts | 180° |
| 2026-05-04 22:36 | 56.74451 | 60.82197 | 775 ft | 7 kts | 181° |
| 2026-05-04 22:37 | 56.74404 | 60.82190 | 775 ft | 6 kts | 185° |
| 2026-05-04 22:37 | 56.74355 | 60.82183 | 775 ft | 10 kts | 184° |
| 2026-05-04 22:37 | 56.74257 | 60.82170 | 775 ft | 16 kts | 182° |
| 2026-05-04 22:37 | 56.74149 | 60.82162 | 775 ft | 15 kts | 182° |
| 2026-05-04 22:38 | 56.74074 | 60.82086 | 775 ft | 13 kts | 255° |
| 2026-05-04 22:38 | 56.74075 | 60.81914 | 775 ft | 20 kts | 273° |
| 2026-05-04 22:38 | 56.74105 | 60.81194 | 775 ft | 93 kts | 274° |
| 2026-05-04 22:38 | 56.74166 | 60.79635 | 776 ft | 150 kts | 274° |
| 2026-05-04 22:39 | 56.74246 | 60.77600 | 1251 ft | 155 kts | 274° |
| 2026-05-04 22:39 | 56.74320 | 60.75685 | 1986 ft | 152 kts | 274° |
| 2026-05-04 22:39 | 56.74404 | 60.73761 | 2618 ft | 153 kts | 274° |
| 2026-05-04 22:39 | 56.74492 | 60.71838 | 3147 ft | 152 kts | 276° |
| 2026-05-04 22:40 | 56.74576 | 60.69922 | 3625 ft | 152 kts | 275° |
| 2026-05-04 22:40 | 56.74657 | 60.67984 | 3998 ft | 160 kts | 276° |
| 2026-05-04 22:40 | 56.74754 | 60.65839 | 4173 ft | 180 kts | 276° |
| 2026-05-04 22:40 | 56.74864 | 60.63437 | 4323 ft | 201 kts | 276° |
| 2026-05-04 22:41 | 56.75042 | 60.60750 | 4509 ft | 226 kts | 279° |
| 2026-05-04 22:41 | 56.75287 | 60.57772 | 4836 ft | 247 kts | 280° |
| 2026-05-04 22:41 | 56.75560 | 60.54619 | 5476 ft | 255 kts | 280° |
| 2026-05-04 22:41 | 56.75837 | 60.51423 | 6188 ft | 256 kts | 280° |
| 2026-05-04 22:42 | 56.76111 | 60.48217 | 6866 ft | 262 kts | 281° |
| 2026-05-04 22:42 | 56.76396 | 60.44872 | 7563 ft | 266 kts | 281° |
| 2026-05-04 22:42 | 56.76667 | 60.41503 | 8284 ft | 271 kts | 281° |
| 2026-05-04 22:42 | 56.76936 | 60.38136 | 8975 ft | 274 kts | 281° |
| 2026-05-04 22:43 | 56.77210 | 60.34673 | 9660 ft | 278 kts | 279° |
| 2026-05-04 22:43 | 56.77491 | 60.31142 | 10224 ft | 289 kts | 279° |
| 2026-05-04 22:43 | 56.77787 | 60.27388 | 10367 ft | 311 kts | 279° |
| 2026-05-04 22:43 | 56.78106 | 60.23336 | 10502 ft | 333 kts | 279° |
| 2026-05-04 22:44 | 56.78447 | 60.19066 | 10859 ft | 345 kts | 279° |
| 2026-05-04 22:44 | 56.78797 | 60.14697 | 11422 ft | 350 kts | 279° |
| 2026-05-04 22:44 | 56.79122 | 60.10272 | 12027 ft | 354 kts | 277° |
| 2026-05-04 22:44 | 56.79408 | 60.05786 | 12640 ft | 358 kts | 277° |
| 2026-05-04 22:45 | 56.79675 | 60.01241 | 13246 ft | 362 kts | 276° |
| 2026-05-04 22:45 | 56.80202 | 59.92011 | 14381 ft | 370 kts | 276° |
| 2026-05-04 22:45 | 56.80471 | 59.87326 | 14932 ft | 373 kts | 277° |
| 2026-05-04 22:46 | 56.80748 | 59.82608 | 15476 ft | 376 kts | 276° |
| 2026-05-04 22:46 | 56.81030 | 59.77842 | 16015 ft | 379 kts | 276° |
| 2026-05-04 22:46 | 56.81310 | 59.73062 | 16525 ft | 381 kts | 276° |
| 2026-05-04 22:46 | 56.81588 | 59.68228 | 17018 ft | 384 kts | 276° |
| 2026-05-04 22:47 | 56.81869 | 59.63361 | 17515 ft | 387 kts | 276° |
| 2026-05-04 22:47 | 56.82153 | 59.58449 | 17990 ft | 390 kts | 276° |
| 2026-05-04 22:47 | 56.82437 | 59.53516 | 18466 ft | 393 kts | 276° |
| 2026-05-04 22:47 | 56.82718 | 59.48531 | 18945 ft | 395 kts | 275° |
| 2026-05-04 22:48 | 56.82997 | 59.43522 | 19447 ft | 396 kts | 275° |
| 2026-05-04 22:48 | 56.83276 | 59.38521 | 19934 ft | 398 kts | 275° |
| 2026-05-04 22:48 | 56.83557 | 59.33487 | 20379 ft | 399 kts | 275° |
| 2026-05-04 22:48 | 56.83838 | 59.28436 | 20830 ft | 401 kts | 275° |
| 2026-05-04 22:49 | 56.84117 | 59.23356 | 21282 ft | 403 kts | 275° |
| 2026-05-04 22:49 | 56.84393 | 59.18240 | 21723 ft | 405 kts | 275° |
| 2026-05-04 22:49 | 56.84723 | 59.13132 | 22132 ft | 408 kts | 279° |
| 2026-05-04 22:49 | 56.85483 | 59.08132 | 22531 ft | 411 kts | 290° |
| 2026-05-04 22:50 | 56.86745 | 59.03418 | 22931 ft | 415 kts | 300° |
| 2026-05-04 22:50 | 56.88468 | 58.99153 | 23308 ft | 420 kts | 309° |
| 2026-05-04 22:50 | 56.90385 | 58.95100 | 23693 ft | 421 kts | 309° |
| 2026-05-04 22:50 | 56.92306 | 58.91020 | 24058 ft | 424 kts | 308° |
| 2026-05-04 22:51 | 56.94226 | 58.86917 | 24412 ft | 426 kts | 308° |
| 2026-05-04 22:51 | 56.96158 | 58.82774 | 24776 ft | 428 kts | 308° |
| 2026-05-04 22:51 | 56.98093 | 58.78620 | 25109 ft | 430 kts | 308° |
| 2026-05-04 22:51 | 57.00042 | 58.74427 | 25451 ft | 432 kts | 308° |
| 2026-05-04 22:52 | 57.01969 | 58.70280 | 25768 ft | 434 kts | 308° |
| 2026-05-04 22:52 | 57.03931 | 58.66052 | 26094 ft | 436 kts | 308° |
| 2026-05-04 22:52 | 57.05925 | 58.61746 | 26403 ft | 438 kts | 308° |
| 2026-05-04 22:52 | 57.07897 | 58.57475 | 26712 ft | 440 kts | 308° |
| 2026-05-04 22:53 | 57.09880 | 58.53174 | 27014 ft | 441 kts | 307° |
| 2026-05-04 22:53 | 57.11839 | 58.48913 | 27295 ft | 443 kts | 307° |
| 2026-05-04 22:53 | 57.13830 | 58.44569 | 27580 ft | 445 kts | 307° |
| 2026-05-04 22:53 | 57.15859 | 58.40135 | 27867 ft | 446 kts | 307° |
| 2026-05-04 22:54 | 57.17837 | 58.35807 | 28148 ft | 448 kts | 307° |
| 2026-05-04 22:54 | 57.19847 | 58.31394 | 28439 ft | 450 kts | 307° |
| 2026-05-04 22:54 | 57.21867 | 58.26951 | 28716 ft | 452 kts | 307° |
| 2026-05-04 22:54 | 57.23889 | 58.22497 | 28982 ft | 453 kts | 307° |
| 2026-05-04 22:55 | 57.25914 | 58.18046 | 29326 ft | 452 kts | 307° |
| 2026-05-04 22:55 | 57.27934 | 58.13619 | 29671 ft | 450 kts | 307° |
| 2026-05-04 22:55 | 57.29955 | 58.09186 | 30010 ft | 449 kts | 307° |
| 2026-05-04 22:55 | 57.31962 | 58.04765 | 30340 ft | 448 kts | 307° |
| 2026-05-04 22:56 | 57.33960 | 58.00344 | 30660 ft | 447 kts | 306° |
| 2026-05-04 22:56 | 57.35950 | 57.95926 | 30975 ft | 447 kts | 307° |
| 2026-05-04 22:56 | 57.37935 | 57.91507 | 31288 ft | 446 kts | 307° |
| 2026-05-04 22:56 | 57.39919 | 57.87082 | 31612 ft | 446 kts | 307° |
| 2026-05-04 22:57 | 57.41897 | 57.82660 | 31920 ft | 445 kts | 307° |
| 2026-05-04 22:57 | 57.43871 | 57.78242 | 32238 ft | 444 kts | 307° |
| 2026-05-04 22:57 | 57.45839 | 57.73829 | 32547 ft | 444 kts | 306° |
| 2026-05-04 22:57 | 57.47799 | 57.69396 | 32865 ft | 442 kts | 304° |
| 2026-05-04 22:58 | 57.49506 | 57.64676 | 33178 ft | 438 kts | 296° |
| 2026-05-04 22:58 | 57.50945 | 57.59691 | 33446 ft | 437 kts | 295° |
| 2026-05-04 22:58 | 57.52369 | 57.54695 | 33720 ft | 437 kts | 295° |
| 2026-05-04 22:58 | 57.53313 | 57.51376 | 33829 ft | 438 kts | 295° |
| 2026-05-04 22:59 | 57.56139 | 57.41445 | 33869 ft | 432 kts | 295° |
| 2026-05-04 22:59 | 57.58853 | 57.31481 | 33869 ft | 431 kts | 294° |
| 2026-05-04 23:00 | 57.61491 | 57.21453 | 33871 ft | 430 kts | 293° |
| 2026-05-04 23:00 | 57.64112 | 57.11412 | 33872 ft | 431 kts | 293° |
| 2026-05-04 23:01 | 57.66748 | 57.01381 | 33861 ft | 430 kts | 294° |
| 2026-05-04 23:01 | 57.69379 | 56.91342 | 33862 ft | 430 kts | 293° |
| 2026-05-04 23:02 | 57.72003 | 56.81278 | 33845 ft | 430 kts | 294° |
| 2026-05-04 23:02 | 57.74608 | 56.71262 | 33852 ft | 431 kts | 293° |
| 2026-05-04 23:03 | 57.77225 | 56.61155 | 33861 ft | 431 kts | 293° |
| 2026-05-04 23:03 | 57.79824 | 56.51042 | 33864 ft | 430 kts | 294° |
| 2026-05-04 23:04 | 57.82416 | 56.40914 | 33857 ft | 429 kts | 293° |
| 2026-05-04 23:04 | 57.84994 | 56.30814 | 33859 ft | 429 kts | 293° |
| 2026-05-04 23:05 | 57.87571 | 56.20691 | 33862 ft | 429 kts | 293° |
| 2026-05-04 23:05 | 57.90129 | 56.10582 | 33857 ft | 429 kts | 292° |
| 2026-05-04 23:06 | 57.92837 | 56.00658 | 33858 ft | 431 kts | 301° |
| 2026-05-04 23:06 | 57.96155 | 55.91260 | 33862 ft | 430 kts | 300° |
| 2026-05-04 23:07 | 57.99471 | 55.81877 | 33859 ft | 431 kts | 301° |
| 2026-05-04 23:07 | 58.02785 | 55.72460 | 33853 ft | 431 kts | 300° |
| 2026-05-04 23:08 | 58.06079 | 55.63011 | 33857 ft | 431 kts | 301° |
| 2026-05-04 23:08 | 58.09369 | 55.53532 | 33859 ft | 431 kts | 301° |
| 2026-05-04 23:09 | 58.12659 | 55.44057 | 33871 ft | 431 kts | 300° |
| 2026-05-04 23:09 | 58.15934 | 55.34544 | 33875 ft | 431 kts | 300° |
| 2026-05-04 23:10 | 58.19200 | 55.25005 | 33880 ft | 431 kts | 301° |
| 2026-05-04 23:10 | 58.22463 | 55.15464 | 33878 ft | 430 kts | 301° |
| 2026-05-04 23:11 | 58.25716 | 55.05921 | 33867 ft | 430 kts | 301° |
| 2026-05-04 23:11 | 58.28955 | 54.96364 | 33869 ft | 430 kts | 300° |
| 2026-05-04 23:12 | 58.32053 | 54.86653 | 33869 ft | 428 kts | 293° |
| 2026-05-04 23:12 | 58.33993 | 54.75992 | 33868 ft | 427 kts | 286° |
| 2026-05-04 23:13 | 58.35753 | 54.65198 | 33865 ft | 427 kts | 286° |
| 2026-05-04 23:13 | 58.37506 | 54.54446 | 33868 ft | 428 kts | 286° |
| 2026-05-04 23:14 | 58.39257 | 54.43604 | 33873 ft | 427 kts | 286° |
| 2026-05-04 23:14 | 58.40988 | 54.32753 | 33865 ft | 427 kts | 286° |
| 2026-05-04 23:15 | 58.42713 | 54.21902 | 33863 ft | 428 kts | 286° |
| 2026-05-04 23:15 | 58.44445 | 54.11021 | 33863 ft | 428 kts | 285° |
| 2026-05-04 23:16 | 58.46160 | 54.00136 | 33858 ft | 428 kts | 285° |
| 2026-05-04 23:16 | 58.47857 | 53.89217 | 33851 ft | 429 kts | 286° |
| 2026-05-04 23:17 | 58.49556 | 53.78300 | 33853 ft | 428 kts | 286° |
| 2026-05-04 23:17 | 58.51256 | 53.67388 | 33857 ft | 428 kts | 286° |
| 2026-05-04 23:18 | 58.52931 | 53.56470 | 33870 ft | 428 kts | 286° |
| 2026-05-04 23:18 | 58.54598 | 53.45554 | 33872 ft | 427 kts | 286° |
| 2026-05-04 23:19 | 58.56258 | 53.34641 | 33879 ft | 426 kts | 287° |
| 2026-05-04 23:19 | 58.57893 | 53.23731 | 33877 ft | 426 kts | 286° |
| 2026-05-04 23:20 | 58.59525 | 53.12814 | 33884 ft | 425 kts | 286° |
| 2026-05-04 23:20 | 58.61148 | 53.01906 | 33873 ft | 425 kts | 286° |
| 2026-05-04 23:21 | 58.62763 | 52.91017 | 33874 ft | 424 kts | 286° |
| 2026-05-04 23:21 | 58.64358 | 52.80141 | 33877 ft | 422 kts | 286° |
| 2026-05-04 23:22 | 58.65942 | 52.69279 | 33866 ft | 422 kts | 287° |
| 2026-05-04 23:22 | 58.67518 | 52.58407 | 33867 ft | 422 kts | 287° |
| 2026-05-04 23:23 | 58.69076 | 52.47583 | 33865 ft | 423 kts | 287° |
| 2026-05-04 23:23 | 58.70645 | 52.36655 | 33874 ft | 423 kts | 287° |
| 2026-05-04 23:24 | 58.72212 | 52.25715 | 33879 ft | 423 kts | 287° |
| 2026-05-04 23:24 | 58.73763 | 52.14794 | 33889 ft | 423 kts | 286° |
| 2026-05-04 23:25 | 58.75300 | 52.03853 | 33882 ft | 423 kts | 287° |
| 2026-05-04 23:25 | 58.76836 | 51.92921 | 33897 ft | 422 kts | 287° |
| 2026-05-04 23:26 | 58.78356 | 51.81998 | 33895 ft | 422 kts | 287° |
| 2026-05-04 23:26 | 58.79865 | 51.71089 | 33896 ft | 421 kts | 287° |
| 2026-05-04 23:27 | 58.81357 | 51.60186 | 33898 ft | 420 kts | 287° |
| 2026-05-04 23:27 | 58.82841 | 51.49274 | 33897 ft | 420 kts | 287° |
| 2026-05-04 23:28 | 58.84312 | 51.38385 | 33894 ft | 420 kts | 287° |
| 2026-05-04 23:28 | 58.85768 | 51.27544 | 33892 ft | 419 kts | 287° |
| 2026-05-04 23:29 | 58.87230 | 51.16641 | 33891 ft | 418 kts | 287° |
| 2026-05-04 23:29 | 58.88681 | 51.05762 | 33912 ft | 418 kts | 287° |
| 2026-05-04 23:30 | 58.90112 | 50.94855 | 33910 ft | 417 kts | 287° |
| 2026-05-04 23:30 | 58.91525 | 50.83982 | 33897 ft | 417 kts | 287° |
| 2026-05-04 23:31 | 58.92929 | 50.73096 | 33871 ft | 417 kts | 287° |
| 2026-05-04 23:31 | 58.94333 | 50.62218 | 33869 ft | 416 kts | 287° |
| 2026-05-04 23:32 | 58.95912 | 50.51443 | 33871 ft | 416 kts | 290° |
| 2026-05-04 23:32 | 58.97602 | 50.40752 | 33869 ft | 415 kts | 290° |
| 2026-05-04 23:33 | 58.99260 | 50.30054 | 33880 ft | 414 kts | 289° |
| 2026-05-04 23:33 | 59.00853 | 50.19324 | 33865 ft | 414 kts | 289° |
| 2026-05-04 23:34 | 59.02415 | 50.08581 | 33861 ft | 413 kts | 289° |
| 2026-05-04 23:34 | 59.03974 | 49.97836 | 33861 ft | 413 kts | 289° |
| 2026-05-04 23:35 | 59.05521 | 49.87102 | 33872 ft | 412 kts | 289° |
| 2026-05-04 23:35 | 59.07062 | 49.76388 | 33865 ft | 410 kts | 289° |
| 2026-05-04 23:36 | 59.08576 | 49.65779 | 33861 ft | 409 kts | 289° |
| 2026-05-04 23:36 | 59.10088 | 49.55107 | 33862 ft | 409 kts | 289° |
| 2026-05-04 23:37 | 59.11605 | 49.44433 | 33856 ft | 409 kts | 289° |
| 2026-05-04 23:37 | 59.13104 | 49.33758 | 33860 ft | 408 kts | 289° |
| 2026-05-04 23:38 | 59.14589 | 49.23116 | 33865 ft | 407 kts | 289° |
| 2026-05-04 23:38 | 59.16054 | 49.12495 | 33848 ft | 405 kts | 289° |
| 2026-05-04 23:39 | 59.17511 | 49.01902 | 33852 ft | 404 kts | 289° |
| 2026-05-04 23:39 | 59.18954 | 48.91318 | 33856 ft | 403 kts | 289° |
| 2026-05-04 23:40 | 59.20385 | 48.80758 | 33862 ft | 403 kts | 288° |
| 2026-05-04 23:40 | 59.21658 | 48.70113 | 33865 ft | 403 kts | 286° |
| 2026-05-04 23:41 | 59.22760 | 48.59359 | 33864 ft | 403 kts | 285° |
| 2026-05-04 23:41 | 59.23844 | 48.48625 | 33861 ft | 402 kts | 285° |
| 2026-05-04 23:42 | 59.24769 | 48.39745 | 33862 ft | 400 kts | 286° |
| 2026-05-04 23:42 | 59.26069 | 48.27369 | 33858 ft | 399 kts | 285° |
| 2026-05-04 23:43 | 59.27163 | 48.16741 | 33852 ft | 398 kts | 285° |
| 2026-05-04 23:43 | 59.28076 | 48.07840 | 33851 ft | 398 kts | 285° |
| 2026-05-04 23:44 | 59.29156 | 47.97243 | 33835 ft | 397 kts | 285° |
| 2026-05-04 23:44 | 59.30217 | 47.86667 | 33844 ft | 395 kts | 285° |
| 2026-05-04 23:45 | 59.31265 | 47.76196 | 33847 ft | 394 kts | 285° |
| 2026-05-04 23:45 | 59.32306 | 47.65668 | 33842 ft | 394 kts | 285° |
| 2026-05-04 23:46 | 59.33337 | 47.55140 | 33838 ft | 394 kts | 285° |
| 2026-05-04 23:46 | 59.34360 | 47.44590 | 33829 ft | 394 kts | 285° |
| 2026-05-04 23:47 | 59.35374 | 47.34038 | 33830 ft | 394 kts | 284° |
| 2026-05-04 23:47 | 59.36384 | 47.23485 | 33815 ft | 394 kts | 284° |
| 2026-05-04 23:48 | 59.37390 | 47.12917 | 33815 ft | 394 kts | 284° |
| 2026-05-04 23:48 | 59.38384 | 47.02332 | 33816 ft | 395 kts | 284° |
| 2026-05-04 23:49 | 59.39362 | 46.91729 | 33805 ft | 394 kts | 284° |
| 2026-05-04 23:49 | 59.40339 | 46.81137 | 33811 ft | 394 kts | 284° |
| 2026-05-04 23:50 | 59.41302 | 46.70555 | 33820 ft | 394 kts | 284° |
| 2026-05-04 23:50 | 59.42249 | 46.59953 | 33820 ft | 394 kts | 284° |
| 2026-05-04 23:51 | 59.43200 | 46.49356 | 33820 ft | 393 kts | 283° |
| 2026-05-04 23:51 | 59.44144 | 46.38764 | 33819 ft | 393 kts | 283° |
| 2026-05-04 23:52 | 59.45068 | 46.28240 | 33828 ft | 393 kts | 283° |
| 2026-05-04 23:52 | 59.45988 | 46.17641 | 33825 ft | 394 kts | 283° |
| 2026-05-04 23:53 | 59.46885 | 46.07055 | 33807 ft | 392 kts | 283° |
| 2026-05-04 23:53 | 59.47779 | 45.96478 | 33811 ft | 391 kts | 282° |
| 2026-05-04 23:54 | 59.48675 | 45.85910 | 33815 ft | 392 kts | 283° |
| 2026-05-04 23:54 | 59.49563 | 45.75331 | 33813 ft | 392 kts | 282° |
| 2026-05-04 23:55 | 59.50441 | 45.64740 | 33817 ft | 393 kts | 283° |
| 2026-05-04 23:56 | 59.51734 | 45.48807 | 33824 ft | 393 kts | 282° |
| 2026-05-04 23:56 | 59.52468 | 45.38118 | 33818 ft | 394 kts | 280° |
| 2026-05-04 23:57 | 59.53106 | 45.27393 | 33806 ft | 395 kts | 279° |
| 2026-05-04 23:57 | 59.53745 | 45.16643 | 33800 ft | 395 kts | 280° |
| 2026-05-04 23:58 | 59.54392 | 45.05876 | 33797 ft | 395 kts | 279° |
| 2026-05-04 23:58 | 59.55037 | 44.95116 | 33804 ft | 395 kts | 280° |
| 2026-05-04 23:59 | 59.55677 | 44.84353 | 33811 ft | 395 kts | 279° |
| 2026-05-04 23:59 | 59.56298 | 44.73651 | 33816 ft | 395 kts | 279° |
| 2026-05-05 00:00 | 59.57032 | 44.62915 | 33803 ft | 395 kts | 281° |
| 2026-05-05 00:00 | 59.57849 | 44.52188 | 33809 ft | 395 kts | 281° |
| 2026-05-05 00:01 | 59.58633 | 44.41478 | 33813 ft | 394 kts | 280° |
| 2026-05-05 00:01 | 59.59370 | 44.30747 | 33815 ft | 395 kts | 279° |
| 2026-05-05 00:02 | 59.60097 | 44.20009 | 33799 ft | 394 kts | 279° |
| 2026-05-05 00:02 | 59.60822 | 44.09292 | 33792 ft | 393 kts | 279° |
| 2026-05-05 00:03 | 59.61552 | 43.98576 | 33802 ft | 393 kts | 279° |
| 2026-05-05 00:03 | 59.62269 | 43.87871 | 33794 ft | 393 kts | 279° |
| 2026-05-05 00:04 | 59.62972 | 43.77221 | 33803 ft | 393 kts | 279° |
| 2026-05-05 00:04 | 59.63667 | 43.66437 | 33799 ft | 393 kts | 278° |
| 2026-05-05 00:05 | 59.64343 | 43.55757 | 33786 ft | 391 kts | 279° |
| 2026-05-05 00:05 | 59.65022 | 43.45132 | 33775 ft | 393 kts | 279° |
| 2026-05-05 00:06 | 59.65693 | 43.34404 | 33772 ft | 394 kts | 279° |
| 2026-05-05 00:06 | 59.66353 | 43.23630 | 33771 ft | 395 kts | 278° |
| 2026-05-05 00:07 | 59.67006 | 43.12860 | 33761 ft | 395 kts | 278° |
| 2026-05-05 00:07 | 59.67644 | 43.02073 | 33760 ft | 394 kts | 278° |
| 2026-05-05 00:08 | 59.68275 | 42.91295 | 33764 ft | 394 kts | 278° |
| 2026-05-05 00:08 | 59.68892 | 42.80523 | 33764 ft | 394 kts | 277° |
| 2026-05-05 00:09 | 59.69505 | 42.69742 | 33765 ft | 394 kts | 277° |
| 2026-05-05 00:09 | 59.70119 | 42.58972 | 33770 ft | 394 kts | 277° |
| 2026-05-05 00:10 | 59.70695 | 42.48181 | 33759 ft | 394 kts | 274° |
| 2026-05-05 00:10 | 59.71258 | 42.37372 | 33747 ft | 395 kts | 274° |
| 2026-05-05 00:11 | 59.71816 | 42.26560 | 33755 ft | 394 kts | 274° |
| 2026-05-05 00:11 | 59.72358 | 42.15744 | 33744 ft | 394 kts | 274° |
| 2026-05-05 00:12 | 59.72892 | 42.04921 | 33742 ft | 395 kts | 273° |
| 2026-05-05 00:12 | 59.73423 | 41.94066 | 33749 ft | 396 kts | 273° |
| 2026-05-05 00:13 | 59.73956 | 41.83124 | 33739 ft | 396 kts | 273° |
| 2026-05-05 00:13 | 59.74461 | 41.72327 | 33747 ft | 395 kts | 273° |
| 2026-05-05 00:14 | 59.74955 | 41.61487 | 33758 ft | 395 kts | 274° |
| 2026-05-05 00:14 | 59.75419 | 41.50628 | 33760 ft | 396 kts | 272° |
| 2026-05-05 00:15 | 59.75830 | 41.39748 | 33756 ft | 395 kts | 272° |
| 2026-05-05 00:15 | 59.76236 | 41.28869 | 33754 ft | 395 kts | 272° |
| 2026-05-05 00:16 | 59.76641 | 41.18008 | 33762 ft | 395 kts | 272° |
| 2026-05-05 00:16 | 59.77040 | 41.07143 | 33759 ft | 394 kts | 272° |
| 2026-05-05 00:17 | 59.77425 | 40.96295 | 33759 ft | 393 kts | 270° |
| 2026-05-05 00:17 | 59.77807 | 40.85485 | 33779 ft | 392 kts | 272° |
| 2026-05-05 00:18 | 59.78176 | 40.74689 | 33767 ft | 391 kts | 271° |
| 2026-05-05 00:18 | 59.78531 | 40.63937 | 33771 ft | 390 kts | 271° |
| 2026-05-05 00:19 | 59.78860 | 40.53240 | 33726 ft | 387 kts | 270° |
| 2026-05-05 00:19 | 59.79203 | 40.42571 | 33720 ft | 388 kts | 270° |
| 2026-05-05 00:20 | 59.79541 | 40.31893 | 33705 ft | 387 kts | 271° |
| 2026-05-05 00:20 | 59.79854 | 40.21199 | 33707 ft | 388 kts | 270° |
| 2026-05-05 00:21 | 59.80095 | 40.10594 | 33713 ft | 386 kts | 269° |
| 2026-05-05 00:21 | 59.80162 | 39.99922 | 33712 ft | 387 kts | 268° |
| 2026-05-05 00:22 | 59.80192 | 39.89246 | 33719 ft | 386 kts | 268° |
| 2026-05-05 00:22 | 59.80259 | 39.78600 | 33695 ft | 385 kts | 268° |
| 2026-05-05 00:23 | 59.80332 | 39.67959 | 33695 ft | 385 kts | 268° |
| 2026-05-05 00:23 | 59.80397 | 39.57338 | 33709 ft | 385 kts | 268° |
| 2026-05-05 00:24 | 59.80449 | 39.46714 | 33710 ft | 385 kts | 268° |
| 2026-05-05 00:24 | 59.80486 | 39.37886 | 33700 ft | 385 kts | 268° |
| 2026-05-05 00:25 | 59.80499 | 39.27254 | 33700 ft | 384 kts | 267° |
| 2026-05-05 00:25 | 59.80476 | 39.16644 | 33699 ft | 384 kts | 267° |
| 2026-05-05 00:26 | 59.80437 | 39.06039 | 33698 ft | 383 kts | 266° |
| 2026-05-05 00:26 | 59.80396 | 38.95460 | 33725 ft | 383 kts | 267° |
| 2026-05-05 00:27 | 59.80349 | 38.84885 | 33717 ft | 383 kts | 266° |
| 2026-05-05 00:27 | 59.80294 | 38.74313 | 33715 ft | 382 kts | 266° |
| 2026-05-05 00:28 | 59.80228 | 38.63764 | 33711 ft | 382 kts | 266° |
| 2026-05-05 00:28 | 59.80152 | 38.53292 | 33709 ft | 381 kts | 265° |
| 2026-05-05 00:29 | 59.80071 | 38.42781 | 33709 ft | 380 kts | 265° |
| 2026-05-05 00:29 | 59.79987 | 38.32298 | 33705 ft | 380 kts | 265° |
| 2026-05-05 00:30 | 59.79891 | 38.21816 | 33700 ft | 379 kts | 265° |
| 2026-05-05 00:30 | 59.80277 | 38.11335 | 33698 ft | 387 kts | 278° |
| 2026-05-05 00:31 | 59.82298 | 38.01276 | 33705 ft | 396 kts | 287° |
| 2026-05-05 00:31 | 59.84600 | 37.91342 | 33693 ft | 395 kts | 288° |
| 2026-05-05 00:32 | 59.86894 | 37.81407 | 33690 ft | 395 kts | 287° |
| 2026-05-05 00:32 | 59.89170 | 37.71466 | 33687 ft | 394 kts | 287° |
| 2026-05-05 00:33 | 59.91427 | 37.61531 | 33674 ft | 394 kts | 287° |
| 2026-05-05 00:33 | 59.93690 | 37.51558 | 33668 ft | 395 kts | 288° |
| 2026-05-05 00:34 | 59.95930 | 37.41636 | 33673 ft | 394 kts | 287° |
| 2026-05-05 00:34 | 59.98173 | 37.31649 | 33672 ft | 394 kts | 287° |
| 2026-05-05 00:35 | 60.00404 | 37.21645 | 33666 ft | 394 kts | 287° |
| 2026-05-05 00:35 | 60.02628 | 37.11642 | 33654 ft | 393 kts | 288° |
| 2026-05-05 00:36 | 60.04835 | 37.01629 | 33646 ft | 393 kts | 287° |
| 2026-05-05 00:36 | 60.07042 | 36.91596 | 33641 ft | 394 kts | 287° |
| 2026-05-05 00:37 | 60.09229 | 36.81599 | 33640 ft | 394 kts | 287° |
| 2026-05-05 00:37 | 60.11426 | 36.71521 | 33640 ft | 395 kts | 287° |
| 2026-05-05 00:38 | 60.13658 | 36.61441 | 33632 ft | 395 kts | 287° |
| 2026-05-05 00:38 | 60.15899 | 36.51370 | 33624 ft | 395 kts | 287° |
| 2026-05-05 00:39 | 60.18125 | 36.41283 | 33618 ft | 395 kts | 287° |
| 2026-05-05 00:39 | 60.20342 | 36.31181 | 33616 ft | 395 kts | 287° |
| 2026-05-05 00:40 | 60.22538 | 36.21091 | 33609 ft | 393 kts | 287° |
| 2026-05-05 00:40 | 60.24727 | 36.10993 | 33599 ft | 394 kts | 287° |
| 2026-05-05 00:41 | 60.26909 | 36.00868 | 33604 ft | 394 kts | 287° |
| 2026-05-05 00:41 | 60.29084 | 35.90718 | 33608 ft | 395 kts | 287° |
| 2026-05-05 00:42 | 60.31256 | 35.80544 | 33611 ft | 394 kts | 287° |
| 2026-05-05 00:42 | 60.33420 | 35.70374 | 33601 ft | 394 kts | 287° |
| 2026-05-05 00:43 | 60.35577 | 35.60193 | 33604 ft | 395 kts | 287° |
| 2026-05-05 00:43 | 60.37721 | 35.49981 | 33603 ft | 395 kts | 286° |
| 2026-05-05 00:44 | 60.39859 | 35.39761 | 33602 ft | 395 kts | 286° |
| 2026-05-05 00:44 | 60.41988 | 35.29515 | 33603 ft | 395 kts | 286° |
| 2026-05-05 00:45 | 60.43847 | 35.19153 | 33607 ft | 384 kts | 276° |
| 2026-05-05 00:45 | 60.44058 | 35.08438 | 33619 ft | 380 kts | 259° |
| 2026-05-05 00:46 | 60.42876 | 34.98090 | 33616 ft | 380 kts | 254° |
| 2026-05-05 00:46 | 60.41564 | 34.87702 | 33592 ft | 381 kts | 254° |
| 2026-05-05 00:47 | 60.40260 | 34.77374 | 33615 ft | 381 kts | 255° |
| 2026-05-05 00:47 | 60.38935 | 34.66980 | 33610 ft | 382 kts | 255° |
| 2026-05-05 00:48 | 60.37601 | 34.56594 | 33610 ft | 382 kts | 254° |
| 2026-05-05 00:48 | 60.36254 | 34.46214 | 33613 ft | 382 kts | 254° |
| 2026-05-05 00:49 | 60.34895 | 34.35845 | 33613 ft | 382 kts | 254° |
| 2026-05-05 00:49 | 60.33540 | 34.25472 | 33612 ft | 382 kts | 255° |
| 2026-05-05 00:50 | 60.32184 | 34.15105 | 33612 ft | 381 kts | 254° |
| 2026-05-05 00:50 | 60.30813 | 34.04766 | 33605 ft | 382 kts | 254° |
| 2026-05-05 00:51 | 60.29422 | 33.94410 | 33373 ft | 384 kts | 254° |
| 2026-05-05 00:51 | 60.28720 | 33.89216 | 32667 ft | 387 kts | 254° |
| 2026-05-05 00:51 | 60.28006 | 33.83965 | 31886 ft | 390 kts | 254° |
| 2026-05-05 00:51 | 60.27288 | 33.78679 | 31095 ft | 392 kts | 254° |
| 2026-05-05 00:52 | 60.26566 | 33.73361 | 30345 ft | 394 kts | 253° |
| 2026-05-05 00:52 | 60.25851 | 33.68082 | 29862 ft | 388 kts | 253° |
| 2026-05-05 00:52 | 60.25139 | 33.62863 | 29318 ft | 384 kts | 254° |
| 2026-05-05 00:52 | 60.24434 | 33.57713 | 28774 ft | 380 kts | 253° |
| 2026-05-05 00:53 | 60.23733 | 33.52619 | 28253 ft | 376 kts | 253° |
| 2026-05-05 00:53 | 60.23035 | 33.47575 | 27737 ft | 371 kts | 253° |
| 2026-05-05 00:53 | 60.22351 | 33.42609 | 27231 ft | 366 kts | 253° |
| 2026-05-05 00:53 | 60.21669 | 33.37713 | 26727 ft | 361 kts | 253° |
| 2026-05-05 00:54 | 60.20992 | 33.32881 | 26235 ft | 357 kts | 253° |
| 2026-05-05 00:54 | 60.20321 | 33.28103 | 25751 ft | 353 kts | 253° |
| 2026-05-05 00:54 | 60.19656 | 33.23390 | 25270 ft | 348 kts | 253° |
| 2026-05-05 00:54 | 60.19000 | 33.18743 | 24807 ft | 343 kts | 253° |
| 2026-05-05 00:55 | 60.18357 | 33.14160 | 24310 ft | 339 kts | 253° |
| 2026-05-05 00:55 | 60.17719 | 33.09614 | 23782 ft | 337 kts | 253° |
| 2026-05-05 00:55 | 60.17087 | 33.05109 | 23265 ft | 333 kts | 254° |
| 2026-05-05 00:55 | 60.16458 | 33.00652 | 22791 ft | 329 kts | 253° |
| 2026-05-05 00:56 | 60.15832 | 32.96253 | 22325 ft | 326 kts | 253° |
| 2026-05-05 00:56 | 60.15218 | 32.91956 | 21891 ft | 324 kts | 253° |
| 2026-05-05 00:56 | 60.14596 | 32.87638 | 21448 ft | 321 kts | 253° |
| 2026-05-05 00:56 | 60.13974 | 32.83348 | 21040 ft | 320 kts | 253° |
| 2026-05-05 00:57 | 60.13354 | 32.79075 | 20627 ft | 318 kts | 253° |
| 2026-05-05 00:57 | 60.12742 | 32.74844 | 20218 ft | 315 kts | 253° |
| 2026-05-05 00:57 | 60.12132 | 32.70623 | 19816 ft | 314 kts | 253° |
| 2026-05-05 00:57 | 60.11529 | 32.66441 | 19420 ft | 312 kts | 253° |
| 2026-05-05 00:58 | 60.10927 | 32.62286 | 19018 ft | 309 kts | 253° |
| 2026-05-05 00:58 | 60.10326 | 32.58154 | 18624 ft | 307 kts | 253° |
| 2026-05-05 00:58 | 60.09725 | 32.54060 | 18216 ft | 305 kts | 253° |
| 2026-05-05 00:58 | 60.09127 | 32.49988 | 17808 ft | 304 kts | 253° |
| 2026-05-05 00:59 | 60.08533 | 32.45949 | 17397 ft | 302 kts | 253° |
| 2026-05-05 00:59 | 60.07938 | 32.41915 | 16985 ft | 300 kts | 253° |
| 2026-05-05 00:59 | 60.07345 | 32.37916 | 16576 ft | 299 kts | 253° |
| 2026-05-05 00:59 | 60.06755 | 32.33934 | 16159 ft | 297 kts | 253° |
| 2026-05-05 01:00 | 60.06168 | 32.29971 | 15743 ft | 296 kts | 253° |
| 2026-05-05 01:00 | 60.05550 | 32.25994 | 15310 ft | 308 kts | 252° |
| 2026-05-05 01:00 | 60.04864 | 32.21875 | 14814 ft | 314 kts | 251° |
| 2026-05-05 01:00 | 60.04148 | 32.17733 | 14345 ft | 314 kts | 251° |
| 2026-05-05 01:01 | 60.03431 | 32.13610 | 13867 ft | 313 kts | 251° |
| 2026-05-05 01:01 | 60.02718 | 32.09513 | 13390 ft | 311 kts | 251° |
| 2026-05-05 01:01 | 60.02010 | 32.05436 | 12914 ft | 310 kts | 251° |
| 2026-05-05 01:01 | 60.01308 | 32.01374 | 12447 ft | 308 kts | 251° |
| 2026-05-05 01:02 | 60.00605 | 31.97341 | 11966 ft | 307 kts | 251° |
| 2026-05-05 01:02 | 59.99908 | 31.93311 | 11514 ft | 305 kts | 251° |
| 2026-05-05 01:02 | 59.99214 | 31.89293 | 11056 ft | 305 kts | 252° |
| 2026-05-05 01:02 | 59.98520 | 31.85278 | 10569 ft | 306 kts | 251° |
| 2026-05-05 01:03 | 59.97830 | 31.81276 | 10213 ft | 300 kts | 252° |
| 2026-05-05 01:03 | 59.97164 | 31.77421 | 10090 ft | 287 kts | 252° |
| 2026-05-05 01:03 | 59.96523 | 31.73736 | 9963 ft | 275 kts | 253° |
| 2026-05-05 01:03 | 59.95913 | 31.70252 | 9769 ft | 265 kts | 252° |
| 2026-05-05 01:04 | 59.95304 | 31.66762 | 9589 ft | 262 kts | 252° |
| 2026-05-05 01:04 | 59.94113 | 31.59972 | 9348 ft | 262 kts | 252° |
| 2026-05-05 01:04 | 59.93513 | 31.56549 | 9217 ft | 262 kts | 252° |
| 2026-05-05 01:05 | 59.92910 | 31.53112 | 8974 ft | 261 kts | 252° |
| 2026-05-05 01:05 | 59.92309 | 31.49688 | 8686 ft | 261 kts | 252° |
| 2026-05-05 01:05 | 59.91709 | 31.46281 | 8386 ft | 260 kts | 252° |
| 2026-05-05 01:05 | 59.91106 | 31.42889 | 8088 ft | 260 kts | 252° |
| 2026-05-05 01:06 | 59.90494 | 31.39488 | 7777 ft | 259 kts | 252° |
| 2026-05-05 01:06 | 59.89892 | 31.36113 | 7488 ft | 258 kts | 252° |
| 2026-05-05 01:06 | 59.89300 | 31.32768 | 7193 ft | 255 kts | 253° |
| 2026-05-05 01:06 | 59.88707 | 31.29432 | 6898 ft | 256 kts | 252° |
| 2026-05-05 01:07 | 59.88104 | 31.26098 | 6605 ft | 255 kts | 251° |
| 2026-05-05 01:07 | 59.87497 | 31.22773 | 6311 ft | 255 kts | 252° |
| 2026-05-05 01:07 | 59.86904 | 31.19450 | 6003 ft | 254 kts | 253° |
| 2026-05-05 01:07 | 59.86313 | 31.16143 | 5718 ft | 253 kts | 253° |
| 2026-05-05 01:08 | 59.85941 | 31.13947 | 5567 ft | 252 kts | 255° |
| 2026-05-05 01:08 | 59.85253 | 31.09498 | 5301 ft | 251 kts | 255° |
| 2026-05-05 01:08 | 59.84927 | 31.07294 | 5169 ft | 251 kts | 256° |
| 2026-05-05 01:08 | 59.84437 | 31.03995 | 4951 ft | 248 kts | 256° |
| 2026-05-05 01:09 | 59.83948 | 31.00721 | 4748 ft | 247 kts | 255° |
| 2026-05-05 01:09 | 59.83440 | 30.97429 | 4564 ft | 245 kts | 255° |
| 2026-05-05 01:09 | 59.82949 | 30.94242 | 4436 ft | 244 kts | 256° |
| 2026-05-05 01:09 | 59.82454 | 30.91013 | 4343 ft | 244 kts | 255° |
| 2026-05-05 01:10 | 59.81949 | 30.87780 | 4198 ft | 246 kts | 255° |
| 2026-05-05 01:10 | 59.81450 | 30.84537 | 4003 ft | 244 kts | 255° |
| 2026-05-05 01:10 | 59.80951 | 30.81318 | 3807 ft | 243 kts | 256° |
| 2026-05-05 01:10 | 59.80456 | 30.78115 | 3599 ft | 243 kts | 254° |
| 2026-05-05 01:11 | 59.79814 | 30.75005 | 3303 ft | 247 kts | 245° |
| 2026-05-05 01:11 | 59.79004 | 30.71984 | 3016 ft | 242 kts | 243° |
| 2026-05-05 01:11 | 59.78223 | 30.69132 | 2927 ft | 229 kts | 248° |
| 2026-05-05 01:11 | 59.77475 | 30.66382 | 2824 ft | 221 kts | 245° |
| 2026-05-05 01:12 | 59.76793 | 30.63787 | 2788 ft | 204 kts | 247° |
| 2026-05-05 01:12 | 59.76145 | 30.61379 | 2632 ft | 191 kts | 240° |
| 2026-05-05 01:12 | 59.75513 | 30.59166 | 2558 ft | 178 kts | 245° |
| 2026-05-05 01:12 | 59.75080 | 30.57080 | 2492 ft | 152 kts | 263° |
| 2026-05-05 01:13 | 59.75047 | 30.55046 | 2508 ft | 144 kts | 282° |
| 2026-05-05 01:13 | 59.75296 | 30.53134 | 2510 ft | 143 kts | 285° |
| 2026-05-05 01:13 | 59.75573 | 30.51267 | 2405 ft | 140 kts | 285° |
| 2026-05-05 01:13 | 59.75856 | 30.49391 | 2246 ft | 142 kts | 284° |
| 2026-05-05 01:14 | 59.76132 | 30.47554 | 2062 ft | 136 kts | 285° |
| 2026-05-05 01:14 | 59.76401 | 30.45783 | 1898 ft | 133 kts | 286° |
| 2026-05-05 01:14 | 59.76662 | 30.44029 | 1713 ft | 132 kts | 289° |
| 2026-05-05 01:14 | 59.76924 | 30.42282 | 1563 ft | 132 kts | 291° |
| 2026-05-05 01:15 | 59.77188 | 30.40519 | 1369 ft | 133 kts | 281° |
| 2026-05-05 01:15 | 59.77444 | 30.38726 | 1196 ft | 136 kts | 284° |
| 2026-05-05 01:15 | 59.77719 | 30.36935 | 1008 ft | 135 kts | 285° |
| 2026-05-05 01:15 | 59.77997 | 30.35146 | 829 ft | 136 kts | 288° |
| 2026-05-05 01:16 | 59.78267 | 30.33358 | 647 ft | 135 kts | 285° |
| 2026-05-05 01:16 | 59.78537 | 30.31581 | 471 ft | 135 kts | 285° |
| 2026-05-05 01:16 | 59.78805 | 30.29799 | 300 ft | 135 kts | 285° |
| 2026-05-05 01:16 | 59.79078 | 30.28023 | 119 ft | 134 kts | 286° |
| 2026-05-05 01:17 | 59.79317 | 30.26451 | 81 ft | 93 kts | 285° |
| 2026-05-05 01:17 | 59.79412 | 30.25763 | 88 ft | 27 kts | 285° |
| 2026-05-05 01:17 | 59.79461 | 30.25422 | 85 ft | 25 kts | 288° |
| 2026-05-05 01:17 | 59.79512 | 30.25101 | 87 ft | 24 kts | 287° |
| 2026-05-05 01:18 | 59.79558 | 30.24797 | 85 ft | 22 kts | 285° |
| 2026-05-05 01:18 | 59.79598 | 30.24515 | 90 ft | 21 kts | 286° |
| 2026-05-05 01:18 | 59.79638 | 30.24244 | 88 ft | 20 kts | 286° |
| 2026-05-05 01:18 | 59.79678 | 30.23978 | 86 ft | 21 kts | 287° |
| 2026-05-05 01:19 | 59.79727 | 30.23647 | 84 ft | 31 kts | 287° |
| 2026-05-05 01:19 | 59.79793 | 30.23313 | 83 ft | 21 kts | 301° |
| 2026-05-05 01:19 | 59.79876 | 30.23111 | 84 ft | 16 kts | 313° |
| 2026-05-05 01:19 | 59.79939 | 30.23028 | 86 ft | 9 kts | 351° |
| 2026-05-05 01:20 | 59.79974 | 30.23104 | 84 ft | 8 kts | 80° |
| 2026-05-05 01:20 | 59.79959 | 30.23259 | 86 ft | 17 kts | 105° |
| 2026-05-05 01:20 | 59.79914 | 30.23562 | 83 ft | 29 kts | 107° |
| 2026-05-05 01:20 | 59.79853 | 30.23973 | 85 ft | 31 kts | 106° |
| 2026-05-05 01:21 | 59.79792 | 30.24379 | 84 ft | 29 kts | 106° |
| 2026-05-05 01:21 | 59.79738 | 30.24751 | 85 ft | 28 kts | 107° |
| 2026-05-05 01:21 | 59.79684 | 30.25110 | 83 ft | 27 kts | 106° |
| 2026-05-05 01:21 | 59.79633 | 30.25457 | 83 ft | 26 kts | 106° |
| 2026-05-05 01:22 | 59.79583 | 30.25787 | 84 ft | 24 kts | 107° |
| 2026-05-05 01:22 | 59.79537 | 30.26104 | 86 ft | 24 kts | 106° |
| 2026-05-05 01:22 | 59.79524 | 30.26270 | 85 ft | 9 kts | 70° |
| 2026-05-05 01:22 | 59.79612 | 30.26352 | 83 ft | 20 kts | 16° |
| 2026-05-05 01:23 | 59.79751 | 30.26432 | 82 ft | 21 kts | 16° |
| 2026-05-05 01:23 | 59.79892 | 30.26514 | 80 ft | 21 kts | 17° |
| 2026-05-05 01:23 | 59.79990 | 30.26573 | 79 ft | 8 kts | 17° |
| 2026-05-05 01:23 | 59.80029 | 30.26637 | 76 ft | 7 kts | 68° |
| 2026-05-05 01:24 | 59.80029 | 30.26733 | 78 ft | 7 kts | 93° |
| 2026-05-05 01:24 | 59.80027 | 30.26802 | 70 ft | 1 kts | 93° |
| 2026-05-05 01:24 | 59.80027 | 30.26808 | 78 ft | 0 kts | 93° |
| 2026-05-05 01:24 | 59.80027 | 30.26814 | 78 ft | 1 kts | 93° |
| 2026-05-05 01:25 | 59.80027 | 30.26818 | 78 ft | 0 kts | 93° |